Time;durP1;ratioP1;P1;durP2;ratioP2;P2;SDS_P1;SDS_P2;PMS_P1;PMS_P2;Temp;Humidity;BMP_temperature;BMP_pressure;BME280_temperature;BME280_humidity;BME280_pressure;Samples;Min_cycle;Max_cycle;Signal;HPM_P1;HPM_P2
2021/11/23 00:00:19;;;;;;;19.77;10.80;;;3.00;99.90;;;;;;5017753;28;20779;-86
2021/11/23 00:02:45;;;;;;;13.90;7.03;;;3.00;99.90;;;;;;5035360;28;20040;-86
2021/11/23 00:05:12;;;;;;;13.20;5.97;;;2.90;99.90;;;;;;5035204;28;20048;-86
2021/11/23 00:07:38;;;;;;;11.30;5.53;;;2.80;99.90;;;;;;5018770;28;20052;-85
2021/11/23 00:10:05;;;;;;;10.40;5.70;;;2.90;99.90;;;;;;5019502;28;20516;-87
2021/11/23 00:12:33;;;;;;;9.67;5.47;;;2.90;99.90;;;;;;5054248;28;20681;-86
2021/11/23 00:14:59;;;;;;;12.33;5.43;;;2.90;99.90;;;;;;5055362;28;20535;-86
2021/11/23 00:17:24;;;;;;;10.20;5.17;;;2.90;99.90;;;;;;5055476;28;20034;-85
2021/11/23 00:19:50;;;;;;;14.30;5.50;;;2.90;99.90;;;;;;5036029;28;20033;-86
2021/11/23 00:22:17;;;;;;;12.23;6.13;;;3.00;99.90;;;;;;5055665;28;20021;-85
2021/11/23 00:24:43;;;;;;;11.63;6.07;;;2.90;99.90;;;;;;5038033;28;20510;-86
2021/11/23 00:27:09;;;;;;;15.80;6.00;;;2.90;99.90;;;;;;5038240;28;20093;-87
2021/11/23 00:29:35;;;;;;;12.93;6.00;;;2.90;99.90;;;;;;5020446;28;20048;-86
2021/11/23 00:32:03;;;;;;;12.33;6.90;;;2.90;99.90;;;;;;5021120;28;20033;-86
2021/11/23 00:34:29;;;;;;;14.17;6.10;;;2.90;99.90;;;;;;5037852;28;20400;-85
2021/11/23 00:36:55;;;;;;;12.43;6.73;;;2.90;99.90;;;;;;5037946;28;20100;-86
2021/11/23 00:39:21;;;;;;;13.13;6.97;;;2.90;99.90;;;;;;5020161;28;20223;-87
2021/11/23 00:41:47;;;;;;;15.10;6.50;;;2.90;99.90;;;;;;5036758;28;20100;-86
2021/11/23 00:44:18;;;;;;;14.63;6.10;;;3.10;99.90;;;;;;5020258;28;20120;-86
2021/11/23 00:46:44;;;;;;;14.60;7.20;;;3.00;99.90;;;;;;5036642;28;20496;-85
2021/11/23 00:49:12;;;;;;;16.50;6.93;;;3.00;99.90;;;;;;5019861;28;20040;-86
2021/11/23 00:51:38;;;;;;;13.23;6.20;;;3.00;99.90;;;;;;5020702;28;20075;-86
2021/11/23 00:54:03;;;;;;;16.00;6.70;;;3.00;99.90;;;;;;5037061;28;20032;-86
2021/11/23 00:56:29;;;;;;;13.00;6.60;;;3.00;99.90;;;;;;5037196;28;20087;-86
2021/11/23 00:58:55;;;;;;;14.53;6.77;;;3.00;99.90;;;;;;5020972;28;20049;-86
2021/11/23 01:01:21;;;;;;;14.87;6.33;;;3.00;99.90;;;;;;5020615;28;20047;-86
2021/11/23 01:03:46;;;;;;;12.77;6.87;;;3.00;99.90;;;;;;5037446;28;20103;-86
2021/11/23 01:06:12;;;;;;;13.13;7.00;;;3.00;99.90;;;;;;5020952;28;20131;-86
2021/11/23 01:08:39;;;;;;;14.20;6.50;;;3.00;99.90;;;;;;5055734;28;20087;-87
2021/11/23 01:11:10;;;;;;;15.50;6.63;;;3.00;99.90;;;;;;5037108;28;20436;-86
2021/11/23 01:13:37;;;;;;;14.43;6.87;;;3.00;99.90;;;;;;5039138;28;20040;-87
2021/11/23 01:16:04;;;;;;;13.63;6.90;;;3.00;99.90;;;;;;5021447;28;20025;-86
2021/11/23 01:18:32;;;;;;;12.90;6.50;;;3.10;99.90;;;;;;5056319;28;20044;-85
2021/11/23 01:21:01;;;;;;;12.90;6.83;;;3.00;99.90;;;;;;5037612;28;20033;-86
2021/11/23 01:23:28;;;;;;;13.15;6.57;;;3.00;99.90;;;;;;5037500;28;20143;-86
2021/11/23 01:25:54;;;;;;;14.47;7.00;;;3.10;99.90;;;;;;5037368;28;20469;-86
2021/11/23 01:28:20;;;;;;;14.90;7.97;;;3.20;99.90;;;;;;5054105;28;20224;-87
2021/11/23 01:30:46;;;;;;;16.17;7.70;;;3.20;99.90;;;;;;5036386;28;20358;-86
2021/11/23 01:33:12;;;;;;;13.17;7.27;;;3.20;99.90;;;;;;5037944;28;20029;-86
2021/11/23 01:35:38;;;;;;;14.37;7.17;;;3.20;99.90;;;;;;5037555;28;20121;-86
2021/11/23 01:38:04;;;;;;;14.70;7.63;;;3.20;99.90;;;;;;5037470;28;20021;-86
2021/11/23 01:40:30;;;;;;;11.37;6.53;;;3.20;99.90;;;;;;5036902;28;20401;-86
2021/11/23 01:42:56;;;;;;;16.33;7.10;;;3.20;99.90;;;;;;5021519;28;20049;-86
2021/11/23 01:45:23;;;;;;;16.23;7.80;;;3.20;99.90;;;;;;5038292;28;20128;-86
2021/11/23 01:47:48;;;;;;;13.20;7.67;;;3.10;99.90;;;;;;5021585;28;20109;-86
2021/11/23 01:50:15;;;;;;;16.33;8.00;;;3.10;99.90;;;;;;5037611;28;20147;-86
2021/11/23 01:52:44;;;;;;;14.30;7.20;;;3.10;99.90;;;;;;5037834;28;20047;-86
2021/11/23 01:55:10;;;;;;;14.82;7.38;;;3.10;99.90;;;;;;5056213;28;20046;-86
2021/11/23 01:57:37;;;;;;;14.73;7.80;;;3.10;99.90;;;;;;5023677;28;20029;-86
2021/11/23 02:00:09;;;;;;;12.93;7.63;;;3.10;99.90;;;;;;5040615;28;20110;-86
2021/11/23 02:02:41;;;;;;;13.97;7.50;;;3.10;99.90;;;;;;5043519;28;20029;-86
2021/11/23 02:05:07;;;;;;;16.83;8.13;;;3.10;99.90;;;;;;5042590;28;20029;-86
2021/11/23 02:07:33;;;;;;;15.67;7.40;;;3.10;99.90;;;;;;5067765;23;20037;-84
2021/11/23 02:09:59;;;;;;;14.60;7.27;;;3.10;99.90;;;;;;5072728;28;20035;-84
2021/11/23 02:12:26;;;;;;;18.37;7.90;;;3.10;99.90;;;;;;5056699;28;20029;-85
2021/11/23 02:14:52;;;;;;;18.70;8.40;;;3.10;99.90;;;;;;5074877;28;20029;-84
2021/11/23 02:17:18;;;;;;;14.47;7.60;;;3.10;99.90;;;;;;5079644;28;20340;-84
2021/11/23 02:19:55;;;;;;;16.80;7.93;;;3.10;99.90;;;;;;5075808;28;20039;-84
2021/11/23 02:22:21;;;;;;;15.00;7.87;;;3.10;99.90;;;;;;5093178;28;20471;-84
2021/11/23 02:24:47;;;;;;;16.37;8.00;;;3.00;99.90;;;;;;5093238;28;20028;-84
2021/11/23 02:27:13;;;;;;;16.37;7.43;;;3.10;99.90;;;;;;5075953;28;20038;-84
2021/11/23 02:29:39;;;;;;;17.83;7.63;;;3.00;99.90;;;;;;5059029;28;20114;-84
2021/11/23 02:32:05;;;;;;;16.20;8.43;;;3.10;99.90;;;;;;5075413;28;20032;-85
2021/11/23 02:34:31;;;;;;;14.83;7.30;;;3.00;99.90;;;;;;5075941;28;20035;-84
2021/11/23 02:36:57;;;;;;;12.90;7.90;;;3.10;99.90;;;;;;5075755;28;20197;-84
2021/11/23 02:39:23;;;;;;;13.37;7.70;;;3.10;99.90;;;;;;5075142;28;20127;-84
2021/11/23 02:41:49;;;;;;;14.33;8.20;;;3.10;99.90;;;;;;5092705;28;20060;-84
2021/11/23 02:44:15;;;;;;;16.10;7.70;;;3.10;99.90;;;;;;5092758;28;20024;-85
2021/11/23 02:46:41;;;;;;;15.10;7.53;;;3.20;99.90;;;;;;5075282;28;20127;-85
2021/11/23 02:49:07;;;;;;;14.20;7.90;;;3.30;99.90;;;;;;5092073;28;20028;-84
2021/11/23 02:51:35;;;;;;;15.93;8.17;;;3.30;99.90;;;;;;5075670;28;20081;-85
2021/11/23 02:54:01;;;;;;;16.17;7.07;;;3.30;99.90;;;;;;5092591;28;20111;-85
2021/11/23 02:56:26;;;;;;;15.30;7.40;;;3.30;99.90;;;;;;5075650;28;20443;-84
2021/11/23 02:58:53;;;;;;;12.23;7.57;;;3.30;99.90;;;;;;5091252;28;20020;-84
2021/11/23 03:01:25;;;;;;;13.23;7.50;;;3.40;99.90;;;;;;5073971;28;20089;-84
2021/11/23 03:03:53;;;;;;;15.37;6.97;;;3.50;99.90;;;;;;5056751;28;20364;-84
2021/11/23 03:06:20;;;;;;;13.03;7.03;;;3.50;99.90;;;;;;5056775;28;20016;-84
2021/11/23 03:08:47;;;;;;;15.57;7.77;;;3.50;99.90;;;;;;5056298;28;20789;-85
2021/11/23 03:11:14;;;;;;;13.87;7.33;;;3.50;99.90;;;;;;5073050;28;20568;-84
2021/11/23 03:13:40;;;;;;;15.47;7.33;;;3.50;99.90;;;;;;5056737;28;20031;-84
2021/11/23 03:16:06;;;;;;;13.43;7.47;;;3.50;99.90;;;;;;5073724;28;20032;-84
2021/11/23 03:18:32;;;;;;;13.17;7.50;;;3.50;99.90;;;;;;5075388;28;20028;-84
2021/11/23 03:20:58;;;;;;;11.37;7.00;;;3.50;99.90;;;;;;5074677;28;20495;-84
2021/11/23 03:23:24;;;;;;;13.60;7.33;;;3.60;99.90;;;;;;5075306;28;20032;-84
2021/11/23 03:25:50;;;;;;;14.33;7.67;;;3.50;99.90;;;;;;5092196;28;20024;-85
2021/11/23 03:28:16;;;;;;;12.93;7.33;;;3.50;99.90;;;;;;5075073;28;20028;-85
2021/11/23 03:30:42;;;;;;;13.80;7.03;;;3.60;99.90;;;;;;5073813;28;20122;-84
2021/11/23 03:33:08;;;;;;;13.17;7.13;;;3.60;99.90;;;;;;5091754;28;20100;-84
2021/11/23 03:35:38;;;;;;;13.00;7.07;;;3.60;99.90;;;;;;5075342;28;20032;-84
2021/11/23 03:38:05;;;;;;;15.15;7.80;;;3.60;99.90;;;;;;5075292;28;20028;-85
2021/11/23 03:40:33;;;;;;;12.33;6.70;;;3.60;99.90;;;;;;5074486;28;20036;-84
2021/11/23 03:42:59;;;;;;;14.17;7.47;;;3.70;99.90;;;;;;5058209;28;20032;-84
2021/11/23 03:45:26;;;;;;;15.67;7.50;;;3.60;99.90;;;;;;5074941;28;20038;-83
2021/11/23 03:47:53;;;;;;;13.10;7.20;;;3.70;99.90;;;;;;5075039;28;20028;-84
2021/11/23 03:50:18;;;;;;;16.27;7.13;;;3.70;99.90;;;;;;5092766;28;20028;-84
2021/11/23 03:52:46;;;;;;;16.00;7.30;;;3.70;99.90;;;;;;5058590;28;20077;-84
2021/11/23 03:55:15;;;;;;;14.00;6.20;;;3.70;99.90;;;;;;5058072;28;20077;-84
2021/11/23 03:57:42;;;;;;;13.30;7.45;;;3.70;99.90;;;;;;5074744;28;20399;-84
2021/11/23 04:00:09;;;;;;;17.60;7.30;;;3.70;99.90;;;;;;5073928;28;20033;-84
2021/11/23 04:02:39;;;;;;;12.77;7.17;;;3.70;99.90;;;;;;5092722;28;20028;-84
2021/11/23 04:05:06;;;;;;;12.90;6.80;;;3.70;99.90;;;;;;5075114;28;20032;-85
2021/11/23 04:07:32;;;;;;;17.30;7.07;;;3.70;99.90;;;;;;5074320;28;20476;-84
2021/11/23 04:09:58;;;;;;;12.07;7.17;;;3.80;99.90;;;;;;5073709;28;20089;-84
2021/11/23 04:12:24;;;;;;;15.07;7.27;;;3.70;99.90;;;;;;5074340;28;20058;-84
2021/11/23 04:14:49;;;;;;;14.10;6.93;;;3.70;99.90;;;;;;5074628;28;20040;-84
2021/11/23 04:17:15;;;;;;;11.70;6.77;;;3.80;99.90;;;;;;5092506;28;20035;-84
2021/11/23 04:19:41;;;;;;;11.90;6.63;;;3.80;99.90;;;;;;5056554;28;20024;-84
2021/11/23 04:22:08;;;;;;;13.23;7.50;;;3.80;99.90;;;;;;5074253;28;20043;-85
2021/11/23 04:24:34;;;;;;;13.77;7.17;;;3.80;99.90;;;;;;5074454;28;20039;-84
2021/11/23 04:27:00;;;;;;;14.53;7.13;;;3.80;99.90;;;;;;5057368;28;20024;-84
2021/11/23 04:29:26;;;;;;;14.43;7.50;;;3.90;99.90;;;;;;5091749;28;20028;-84
2021/11/23 04:31:52;;;;;;;14.17;6.87;;;3.90;99.90;;;;;;5073551;28;20035;-84
2021/11/23 04:34:18;;;;;;;12.37;6.93;;;3.90;99.90;;;;;;5074050;28;20538;-83
2021/11/23 04:36:44;;;;;;;14.33;7.47;;;3.90;99.90;;;;;;5092591;28;20111;-84
2021/11/23 04:39:11;;;;;;;12.33;7.13;;;3.90;99.90;;;;;;5056277;28;20077;-84
2021/11/23 04:41:41;;;;;;;13.27;7.47;;;3.90;99.90;;;;;;5057452;28;20727;-84
2021/11/23 04:44:08;;;;;;;15.33;6.97;;;3.90;99.90;;;;;;5057320;28;20040;-85
2021/11/23 04:46:34;;;;;;;12.30;7.33;;;4.00;99.90;;;;;;5056676;28;20067;-84
2021/11/23 04:49:00;;;;;;;12.47;7.50;;;4.00;99.90;;;;;;5056330;28;20082;-85
2021/11/23 04:51:26;;;;;;;13.70;7.90;;;4.00;99.90;;;;;;5073756;28;20036;-85
2021/11/23 04:53:52;;;;;;;12.90;7.53;;;4.00;99.90;;;;;;5074436;28;20028;-85
2021/11/23 04:56:18;;;;;;;11.17;7.50;;;4.10;99.90;;;;;;5057723;28;20043;-84
2021/11/23 04:58:44;;;;;;;11.53;7.37;;;4.10;99.90;;;;;;5056828;28;20105;-85
2021/11/23 05:01:10;;;;;;;14.53;7.33;;;4.10;99.90;;;;;;5058153;28;20422;-85
2021/11/23 05:03:36;;;;;;;11.53;6.83;;;4.20;99.90;;;;;;5059331;28;20024;-85
2021/11/23 05:06:02;;;;;;;15.23;7.93;;;4.20;99.90;;;;;;5075095;28;20054;-84
2021/11/23 05:08:28;;;;;;;13.83;7.90;;;4.20;99.90;;;;;;5092034;28;20028;-85
2021/11/23 05:10:53;;;;;;;23.80;13.00;;;4.20;99.90;;;;;;5075480;28;20089;-85
2021/11/23 05:13:19;;;;;;;21.27;12.67;;;4.20;99.90;;;;;;5074987;28;20401;-85
2021/11/23 05:15:45;;;;;;;17.37;10.23;;;4.10;99.90;;;;;;5074516;28;20076;-85
2021/11/23 05:18:10;;;;;;;21.23;10.20;;;4.20;99.90;;;;;;5058128;28;20062;-85
2021/11/23 05:20:36;;;;;;;14.27;8.20;;;4.20;99.90;;;;;;5057087;28;20661;-85
2021/11/23 05:23:02;;;;;;;14.53;8.40;;;4.20;99.90;;;;;;5073869;28;20051;-86
2021/11/23 05:25:28;;;;;;;15.80;8.37;;;4.20;99.90;;;;;;5076286;28;20028;-84
2021/11/23 05:27:54;;;;;;;13.20;8.23;;;4.20;99.90;;;;;;5060638;28;20128;-84
2021/11/23 05:30:20;;;;;;;15.90;8.17;;;4.20;99.90;;;;;;5058316;28;20144;-86
2021/11/23 05:32:46;;;;;;;16.53;7.90;;;4.30;99.90;;;;;;5058181;28;20050;-83
2021/11/23 05:35:12;;;;;;;14.00;8.60;;;4.20;99.90;;;;;;5058199;28;20376;-83
2021/11/23 05:37:38;;;;;;;13.97;8.83;;;4.30;99.90;;;;;;5057608;28;20047;-83
2021/11/23 05:40:07;;;;;;;15.43;8.83;;;4.30;99.90;;;;;;5073389;28;20032;-86
2021/11/23 05:42:33;;;;;;;16.27;8.82;;;4.30;99.90;;;;;;5057703;28;20453;-84
2021/11/23 05:44:59;;;;;;;16.17;9.13;;;4.30;99.90;;;;;;5093016;28;20031;-83
2021/11/23 05:47:25;;;;;;;16.00;9.40;;;4.30;99.90;;;;;;5058438;28;20056;-84
2021/11/23 05:49:51;;;;;;;14.07;8.70;;;4.20;99.90;;;;;;5058511;28;20032;-83
2021/11/23 05:52:18;;;;;;;16.53;9.33;;;4.20;99.90;;;;;;5074806;28;20039;-84
2021/11/23 05:54:45;;;;;;;16.90;9.60;;;4.30;99.90;;;;;;5076011;28;20047;-84
2021/11/23 05:57:13;;;;;;;16.63;9.87;;;4.20;99.90;;;;;;5075170;28;20158;-84
2021/11/23 05:59:39;;;;;;;21.90;10.43;;;4.30;99.90;;;;;;5058817;28;20036;-84
2021/11/23 06:02:05;;;;;;;20.00;11.13;;;4.40;99.90;;;;;;5075231;28;20035;-84
2021/11/23 06:04:30;;;;;;;21.20;12.23;;;4.40;99.90;;;;;;5091680;28;20416;-87
2021/11/23 06:06:56;;;;;;;31.30;13.73;;;4.30;99.90;;;;;;5074807;28;20131;-84
2021/11/23 06:09:32;;;;;;;28.07;13.47;;;4.40;99.90;;;;;;5093395;28;20585;-86
2021/11/23 06:12:10;;;;;;;35.40;16.13;;;4.40;99.90;;;;;;5057713;28;20035;-85
2021/11/23 06:14:38;;;;;;;21.37;11.27;;;4.40;99.90;;;;;;5074354;28;20036;-83
2021/11/23 06:17:07;;;;;;;18.50;9.97;;;4.40;99.90;;;;;;5058371;28;20032;-86
2021/11/23 06:19:32;;;;;;;20.00;10.43;;;4.40;99.90;;;;;;5057854;28;20136;-85
2021/11/23 06:21:58;;;;;;;19.67;10.63;;;4.40;99.90;;;;;;5093621;28;20056;-86
2021/11/23 06:24:25;;;;;;;19.20;10.23;;;4.30;99.90;;;;;;5074752;28;20032;-85
2021/11/23 06:26:51;;;;;;;20.87;10.70;;;4.40;99.90;;;;;;5057822;28;20076;-85
2021/11/23 06:29:17;;;;;;;17.57;10.13;;;4.40;99.90;;;;;;5073253;28;20036;-85
2021/11/23 06:31:43;;;;;;;19.60;10.90;;;4.40;99.90;;;;;;5057836;28;20024;-84
2021/11/23 06:34:11;;;;;;;18.50;10.20;;;4.30;99.90;;;;;;5074096;28;20701;-86
2021/11/23 06:36:37;;;;;;;21.25;10.43;;;4.40;99.90;;;;;;5056269;28;20442;-86
2021/11/23 06:39:05;;;;;;;19.53;10.57;;;4.30;99.90;;;;;;5072010;28;20189;-84
2021/11/23 06:41:31;;;;;;;19.27;11.13;;;4.40;99.90;;;;;;5090070;28;20020;-83
2021/11/23 06:44:01;;;;;;;18.40;10.67;;;4.40;99.90;;;;;;5076981;28;20565;-85
2021/11/23 06:46:27;;;;;;;16.70;10.17;;;4.40;99.90;;;;;;5061709;28;20024;-85
2021/11/23 06:48:52;;;;;;;20.60;10.53;;;4.40;99.90;;;;;;5062234;28;20039;-83
2021/11/23 06:51:18;;;;;;;20.33;10.70;;;4.40;99.90;;;;;;5078146;28;20035;-84
2021/11/23 06:53:44;;;;;;;17.87;9.97;;;4.40;99.90;;;;;;5077998;28;20506;-84
2021/11/23 06:56:10;;;;;;;21.13;11.53;;;4.40;99.90;;;;;;5096785;28;20039;-84
2021/11/23 06:58:35;;;;;;;25.43;12.07;;;4.40;99.90;;;;;;5077381;28;20044;-84
2021/11/23 07:01:01;;;;;;;20.83;11.23;;;4.40;99.90;;;;;;5059268;28;20031;-83
2021/11/23 07:03:27;;;;;;;19.17;10.70;;;4.50;99.90;;;;;;5077437;28;20037;-84
2021/11/23 07:05:52;;;;;;;18.73;11.50;;;4.50;99.90;;;;;;5077492;28;20039;-84
2021/11/23 07:08:18;;;;;;;21.20;11.57;;;4.50;99.90;;;;;;5060187;28;20036;-85
2021/11/23 07:10:44;;;;;;;23.27;11.40;;;4.40;99.90;;;;;;5076195;28;20039;-84
2021/11/23 07:13:10;;;;;;;18.53;10.77;;;4.50;99.90;;;;;;5059755;28;20101;-84
2021/11/23 07:15:36;;;;;;;19.93;11.50;;;4.50;99.90;;;;;;5076364;28;20031;-84
2021/11/23 07:18:02;;;;;;;19.27;11.03;;;4.50;99.90;;;;;;5077160;28;20024;-83
2021/11/23 07:20:28;;;;;;;26.13;13.47;;;4.40;99.90;;;;;;5076185;28;20491;-84
2021/11/23 07:22:54;;;;;;;21.93;12.40;;;4.40;99.90;;;;;;5076637;28;20569;-84
2021/11/23 07:25:20;;;;;;;21.97;11.87;;;4.40;99.90;;;;;;5093654;28;20027;-84
2021/11/23 07:27:46;;;;;;;20.03;11.83;;;4.40;99.90;;;;;;5060785;28;20180;-84
2021/11/23 07:30:12;;;;;;;21.97;11.87;;;4.40;99.90;;;;;;5075272;28;20232;-84
2021/11/23 07:32:38;;;;;;;18.73;11.10;;;4.40;99.90;;;;;;5076618;28;20207;-84
2021/11/23 07:35:05;;;;;;;20.70;12.07;;;4.30;99.90;;;;;;5077249;28;20043;-84
2021/11/23 07:37:36;;;;;;;25.40;12.60;;;4.30;99.90;;;;;;5076502;28;20032;-84
2021/11/23 07:40:05;;;;;;;20.37;11.27;;;4.40;99.90;;;;;;5076304;28;20067;-84
2021/11/23 07:42:31;;;;;;;22.45;12.48;;;4.40;99.90;;;;;;5076584;28;20020;-84
2021/11/23 07:44:57;;;;;;;18.53;11.83;;;4.40;99.90;;;;;;5076392;28;20391;-84
2021/11/23 07:47:24;;;;;;;23.23;12.67;;;4.40;99.90;;;;;;5076381;28;20035;-84
2021/11/23 07:49:50;;;;;;;23.63;12.83;;;4.40;99.90;;;;;;5076001;28;20024;-84
2021/11/23 07:52:16;;;;;;;20.97;12.57;;;4.40;99.90;;;;;;5059964;28;20059;-85
2021/11/23 07:54:42;;;;;;;20.57;12.93;;;4.40;99.90;;;;;;5094470;28;20031;-84
2021/11/23 07:57:08;;;;;;;21.90;12.67;;;4.40;99.90;;;;;;5077350;28;20108;-84
2021/11/23 07:59:34;;;;;;;25.37;12.57;;;4.40;99.90;;;;;;5095215;28;20505;-86
2021/11/23 08:02:00;;;;;;;20.00;12.50;;;4.40;99.90;;;;;;5059294;28;20024;-84
2021/11/23 08:04:25;;;;;;;23.83;12.87;;;4.40;99.90;;;;;;5061629;28;20069;-85
2021/11/23 08:09:20;;;;;;;20.40;12.45;;;4.40;99.90;;;;;;5012810;28;20052;-84
2021/11/23 08:11:46;;;;;;;27.40;13.93;;;4.50;99.90;;;;;;5032199;28;20026;-84
2021/11/23 08:14:12;;;;;;;34.53;14.10;;;4.50;99.90;;;;;;5031438;28;20037;-84
2021/11/23 08:16:37;;;;;;;21.43;12.70;;;4.50;99.90;;;;;;5014357;28;20038;-84
2021/11/23 08:19:03;;;;;;;22.43;12.83;;;4.50;99.90;;;;;;5032317;28;20485;-84
2021/11/23 08:21:32;;;;;;;25.83;14.00;;;4.50;99.90;;;;;;5019320;28;20570;-84
2021/11/23 08:23:58;;;;;;;21.77;13.73;;;4.50;99.90;;;;;;5053739;28;20529;-85
2021/11/23 08:27:16;;;;;;;25.23;13.43;;;4.50;99.90;;;;;;5042862;28;20045;-86
2021/11/23 08:30:29;;;;;;;24.10;13.63;;;4.50;99.90;;;;;;5064196;28;20047;-87
2021/11/23 08:32:55;;;;;;;27.20;14.57;;;4.60;99.90;;;;;;5052931;28;20147;-84
2021/11/23 08:35:20;;;;;;;60.10;16.83;;;4.60;99.90;;;;;;5034197;28;20128;-84
2021/11/23 08:37:46;;;;;;;57.70;17.50;;;4.50;99.90;;;;;;5051593;28;20024;-84
2021/11/23 08:40:12;;;;;;;27.43;16.00;;;4.60;99.90;;;;;;5033628;28;20473;-85
2021/11/23 08:42:38;;;;;;;26.97;15.33;;;4.60;99.90;;;;;;5037647;28;20029;-87
2021/11/23 08:45:05;;;;;;;27.97;14.80;;;4.60;99.90;;;;;;5038351;28;20087;-85
2021/11/23 08:47:31;;;;;;;30.10;15.80;;;4.70;99.90;;;;;;5035909;28;20036;-84
2021/11/23 08:49:57;;;;;;;27.17;14.80;;;4.70;99.90;;;;;;5053619;28;20029;-85
2021/11/23 08:52:26;;;;;;;30.27;15.87;;;4.70;99.90;;;;;;5037217;28;20338;-84
2021/11/23 08:54:52;;;;;;;36.00;17.40;;;4.70;99.90;;;;;;5043233;28;20124;-86
2021/11/23 08:57:18;;;;;;;31.63;15.87;;;4.70;99.90;;;;;;5040108;28;20355;-85
2021/11/23 08:59:44;;;;;;;28.23;15.93;;;4.70;99.90;;;;;;5020154;28;20060;-82
2021/11/23 09:02:13;;;;;;;28.27;16.37;;;4.70;99.90;;;;;;5037447;28;20032;-85
2021/11/23 09:04:40;;;;;;;32.47;16.90;;;4.80;99.90;;;;;;5036600;28;20032;-83
2021/11/23 09:07:08;;;;;;;30.50;16.27;;;4.70;99.90;;;;;;5020114;28;20055;-85
2021/11/23 09:09:40;;;;;;;30.70;15.27;;;4.80;99.90;;;;;;5053104;28;20041;-83
2021/11/23 09:12:06;;;;;;;74.17;20.33;;;4.80;99.90;;;;;;5035950;28;20041;-82
2021/11/23 09:14:36;;;;;;;101.07;21.40;;;4.80;99.90;;;;;;5035145;28;20484;-86
2021/11/23 09:17:05;;;;;;;50.90;19.40;;;4.80;99.90;;;;;;5034724;28;20123;-85
2021/11/23 09:19:31;;;;;;;33.97;17.17;;;4.80;99.90;;;;;;5037065;28;20097;-85
2021/11/23 09:21:57;;;;;;;36.63;18.00;;;4.90;99.90;;;;;;5054945;28;20124;-87
2021/11/23 09:24:23;;;;;;;31.57;18.27;;;4.90;99.90;;;;;;5036985;28;20129;-84
2021/11/23 09:26:51;;;;;;;36.03;18.73;;;4.90;99.90;;;;;;5054205;28;20466;-86
2021/11/23 09:29:21;;;;;;;29.93;16.27;;;5.00;99.90;;;;;;5036894;28;20173;-86
2021/11/23 09:31:48;;;;;;;32.17;17.47;;;5.00;99.90;;;;;;5038426;28;20476;-86
2021/11/23 09:34:16;;;;;;;29.50;17.37;;;5.00;99.90;;;;;;5034304;28;20151;-86
2021/11/23 09:36:43;;;;;;;32.03;17.20;;;5.00;99.90;;;;;;5035350;28;20042;-86
2021/11/23 09:39:09;;;;;;;33.37;18.87;;;5.00;99.90;;;;;;5033808;28;20434;-85
2021/11/23 09:41:37;;;;;;;33.10;19.23;;;4.90;99.90;;;;;;5032768;28;20029;-86
2021/11/23 09:44:05;;;;;;;31.70;18.00;;;5.00;99.90;;;;;;5034495;28;20048;-86
2021/11/23 09:46:32;;;;;;;27.57;17.53;;;5.10;99.90;;;;;;5040706;28;20044;-84
2021/11/23 09:48:58;;;;;;;30.47;17.93;;;5.10;99.90;;;;;;5038611;28;20037;-87
2021/11/23 09:51:28;;;;;;;28.90;17.87;;;5.20;99.90;;;;;;5015762;28;20057;-85
2021/11/23 09:53:56;;;;;;;31.60;17.67;;;5.10;99.90;;;;;;5051064;28;20045;-85
2021/11/23 09:56:23;;;;;;;32.70;18.57;;;5.20;99.90;;;;;;5027814;28;20037;-84
2021/11/23 09:58:55;;;;;;;35.87;18.10;;;5.20;99.90;;;;;;5046721;28;20378;-85
2021/11/23 10:01:25;;;;;;;30.23;16.43;;;5.20;99.90;;;;;;5021687;28;20029;-86
2021/11/23 10:03:53;;;;;;;31.30;17.40;;;5.30;99.90;;;;;;5036298;28;20029;-86
2021/11/23 10:06:24;;;;;;;29.07;17.27;;;5.20;99.90;;;;;;5035587;28;20032;-85
2021/11/23 10:08:52;;;;;;;31.10;16.77;;;5.20;99.90;;;;;;5035127;28;20033;-85
2021/11/23 10:11:29;;;;;;;26.90;16.80;;;5.20;99.90;;;;;;5035174;28;20463;-85
2021/11/23 10:13:58;;;;;;;32.83;17.87;;;5.30;99.90;;;;;;5036592;28;20443;-85
2021/11/23 10:16:35;;;;;;;30.42;17.65;;;5.30;99.90;;;;;;5036871;28;20037;-85
2021/11/23 10:19:06;;;;;;;32.07;19.37;;;5.30;99.90;;;;;;5058139;28;20021;-85
2021/11/23 10:21:32;;;;;;;33.33;19.43;;;5.30;99.90;;;;;;5025003;28;20534;-86
2021/11/23 10:23:58;;;;;;;33.60;18.87;;;5.40;99.90;;;;;;5060034;28;20021;-85
2021/11/23 10:26:32;;;;;;;33.67;18.03;;;5.40;99.90;;;;;;5038642;28;20333;-85
2021/11/23 10:29:03;;;;;;;33.90;18.87;;;5.40;99.90;;;;;;5037870;28;20029;-85
2021/11/23 10:31:36;;;;;;;30.13;18.13;;;5.40;99.90;;;;;;5038971;28;20037;-86
2021/11/23 10:34:05;;;;;;;29.63;17.63;;;5.40;99.90;;;;;;5060447;28;20044;-85
2021/11/23 10:36:36;;;;;;;32.92;18.00;;;5.40;99.90;;;;;;5058074;28;20044;-84
2021/11/23 10:39:15;;;;;;;31.73;18.90;;;5.50;99.90;;;;;;5053912;28;20037;-85
2021/11/23 10:41:43;;;;;;;31.90;19.20;;;5.50;99.90;;;;;;5039103;28;20166;-84
2021/11/23 10:44:20;;;;;;;35.60;18.83;;;5.40;99.90;;;;;;5036039;28;20127;-84
2021/11/23 10:46:55;;;;;;;30.57;19.07;;;5.50;99.90;;;;;;5037336;28;20029;-85
2021/11/23 10:49:32;;;;;;;33.80;19.40;;;5.50;99.90;;;;;;5036991;28;20025;-85
2021/11/23 10:51:59;;;;;;;35.63;19.10;;;5.50;99.90;;;;;;5053676;28;20029;-84
2021/11/23 10:54:29;;;;;;;32.33;18.97;;;5.50;99.90;;;;;;5037518;28;20037;-84
2021/11/23 10:56:56;;;;;;;;;;;5.50;99.90;;;;;;5020908;28;20033;-85
2021/11/23 10:59:21;;;;;;;37.50;20.60;;;5.60;99.90;;;;;;5036215;28;19909;-85
2021/11/23 11:01:48;;;;;;;42.60;21.70;;;5.60;99.90;;;;;;5052941;28;20029;-84
2021/11/23 11:04:14;;;;;;;38.03;20.93;;;5.60;99.90;;;;;;5035266;28;20033;-84
2021/11/23 11:06:41;;;;;;;36.63;20.07;;;5.60;99.90;;;;;;5053196;28;20029;-85
2021/11/23 11:09:08;;;;;;;33.60;18.87;;;5.60;99.90;;;;;;5052296;28;20074;-84
2021/11/23 11:11:35;;;;;;;37.17;20.00;;;5.70;99.90;;;;;;5055090;28;20112;-85
2021/11/23 11:14:01;;;;;;;40.83;19.77;;;5.70;99.90;;;;;;5036498;28;20135;-86
2021/11/23 11:16:27;;;;;;;41.47;20.73;;;5.70;99.90;;;;;;5036416;28;20128;-84
2021/11/23 11:19:14;;;;;;;37.20;20.47;;;5.60;99.90;;;;;;5034451;28;20091;-87
2021/11/23 11:21:48;;;;;;;37.27;20.10;;;5.60;99.90;;;;;;5035008;28;20116;-86
2021/11/23 11:24:34;;;;;;;44.43;20.47;;;5.60;99.90;;;;;;5060181;28;20100;-85
2021/11/23 11:27:12;;;;;;;37.33;20.07;;;5.60;99.90;;;;;;5034492;28;20040;-84
2021/11/23 11:29:39;;;;;;;36.67;20.03;;;5.60;99.90;;;;;;5051748;28;20445;-84
2021/11/23 11:32:06;;;;;;;41.07;20.73;;;5.60;99.90;;;;;;5018445;28;20037;-84
2021/11/23 11:34:39;;;;;;;45.80;22.63;;;5.60;99.90;;;;;;5034942;28;20480;-84
2021/11/23 11:37:37;;;;;;;41.17;20.33;;;5.60;99.90;;;;;;5041736;28;20037;-85
2021/11/23 11:40:05;;;;;;;42.22;21.20;;;5.60;99.90;;;;;;5026695;28;20472;-84
2021/11/23 11:42:45;;;;;;;44.07;21.53;;;5.60;99.90;;;;;;5034124;28;20079;-85
2021/11/23 11:45:13;;;;;;;40.97;21.90;;;5.60;99.90;;;;;;5014680;28;20040;-84
2021/11/23 11:47:41;;;;;;;44.00;20.90;;;5.60;99.90;;;;;;5052447;28;20029;-86
2021/11/23 11:50:14;;;;;;;43.30;22.53;;;5.60;99.90;;;;;;5034832;28;20060;-85
2021/11/23 11:53:01;;;;;;;47.83;24.00;;;5.60;99.90;;;;;;5034388;28;20025;-84
2021/11/23 11:55:28;;;;;;;52.77;22.83;;;5.70;99.90;;;;;;5033580;28;20071;-85
2021/11/23 11:57:57;;;;;;;46.80;23.57;;;5.70;99.90;;;;;;5017491;28;20044;-84
2021/11/23 12:00:28;;;;;;;46.97;22.87;;;5.60;99.90;;;;;;5033051;28;20036;-84
2021/11/23 12:03:00;;;;;;;50.43;22.93;;;5.70;99.90;;;;;;5034282;28;20083;-84
2021/11/23 12:05:49;;;;;;;49.40;23.10;;;5.70;99.90;;;;;;5034345;28;20082;-85
2021/11/23 12:08:33;;;;;;;58.85;24.63;;;5.70;99.90;;;;;;5043121;28;20068;-84
2021/11/23 12:11:12;;;;;;;56.10;23.90;;;5.70;99.90;;;;;;5053833;28;20051;-85
2021/11/23 12:13:48;;;;;;;53.70;23.65;;;5.70;99.90;;;;;;5036516;28;20457;-85
2021/11/23 12:16:36;;;;;;;54.47;24.83;;;5.70;99.90;;;;;;5019239;28;20036;-86
2021/11/23 12:19:24;;;;;;;54.00;23.40;;;5.80;99.90;;;;;;5035925;28;20039;-84
2021/11/23 12:21:55;;;;;;;58.43;24.57;;;5.80;99.90;;;;;;5018995;28;20033;-84
2021/11/23 12:24:38;;;;;;;53.83;24.40;;;5.80;99.90;;;;;;5018876;28;20044;-84
2021/11/23 12:27:16;;;;;;;56.27;25.87;;;5.80;99.90;;;;;;5035519;28;20402;-86
2021/11/23 12:29:43;;;;;;;53.53;25.10;;;5.80;99.90;;;;;;5035505;28;20904;-87
2021/11/23 12:32:09;;;;;;;60.37;25.77;;;5.80;99.90;;;;;;5035459;28;20047;-85
2021/11/23 12:34:34;;;;;;;58.63;26.50;;;5.90;99.90;;;;;;5019178;28;20491;-84
2021/11/23 12:37:01;;;;;;;59.00;25.23;;;5.90;99.90;;;;;;5018155;28;20405;-84
2021/11/23 12:39:37;;;;;;;60.33;25.93;;;5.90;99.90;;;;;;5051868;28;20041;-85
2021/11/23 12:42:06;;;;;;;56.60;24.57;;;5.90;99.90;;;;;;5033352;28;20132;-84
2021/11/23 12:44:36;;;;;;;63.03;27.92;;;5.80;99.90;;;;;;5035166;28;20154;-86
2021/11/23 12:47:06;;;;;;;61.17;26.40;;;5.90;99.90;;;;;;5053765;28;20048;-85